sensor_id;sensor_type;location;lat;lon;timestamp;P1;durP1;ratioP1;P2;durP2;ratioP2
2456;SDS011;1240;48.018;7.816;2022-07-23T00:01:07;9.60;;;6.55;;
2456;SDS011;1240;48.018;7.816;2022-07-23T00:03:32;7.97;;;7.13;;
2456;SDS011;1240;48.018;7.816;2022-07-23T00:05:57;6.83;;;6.33;;
2456;SDS011;1240;48.018;7.816;2022-07-23T00:08:22;8.00;;;7.20;;
2456;SDS011;1240;48.018;7.816;2022-07-23T00:10:48;7.80;;;7.10;;
2456;SDS011;1240;48.018;7.816;2022-07-23T00:13:13;7.30;;;6.70;;
2456;SDS011;1240;48.018;7.816;2022-07-23T00:15:38;7.63;;;7.00;;
2456;SDS011;1240;48.018;7.816;2022-07-23T00:18:03;7.33;;;6.70;;
2456;SDS011;1240;48.018;7.816;2022-07-23T00:20:28;7.97;;;7.37;;
2456;SDS011;1240;48.018;7.816;2022-07-23T00:22:54;6.97;;;6.28;;
2456;SDS011;1240;48.018;7.816;2022-07-23T00:25:20;8.00;;;7.27;;
2456;SDS011;1240;48.018;7.816;2022-07-23T00:27:46;10.87;;;6.50;;
2456;SDS011;1240;48.018;7.816;2022-07-23T00:30:11;8.63;;;6.70;;
2456;SDS011;1240;48.018;7.816;2022-07-23T00:32:53;7.53;;;6.93;;
2456;SDS011;1240;48.018;7.816;2022-07-23T00:35:19;7.40;;;6.80;;
2456;SDS011;1240;48.018;7.816;2022-07-23T00:37:44;6.67;;;6.10;;
2456;SDS011;1240;48.018;7.816;2022-07-23T00:40:10;6.27;;;5.80;;
2456;SDS011;1240;48.018;7.816;2022-07-23T00:42:35;6.43;;;5.93;;
2456;SDS011;1240;48.018;7.816;2022-07-23T00:45:00;6.10;;;5.50;;
2456;SDS011;1240;48.018;7.816;2022-07-23T00:47:26;6.72;;;6.22;;
2456;SDS011;1240;48.018;7.816;2022-07-23T00:49:51;6.28;;;5.78;;
2456;SDS011;1240;48.018;7.816;2022-07-23T00:52:16;7.30;;;5.63;;
2456;SDS011;1240;48.018;7.816;2022-07-23T00:54:41;11.20;;;6.23;;
2456;SDS011;1240;48.018;7.816;2022-07-23T00:57:07;9.47;;;6.57;;
2456;SDS011;1240;48.018;7.816;2022-07-23T00:59:32;8.27;;;7.37;;
2456;SDS011;1240;48.018;7.816;2022-07-23T01:01:57;6.57;;;6.07;;
2456;SDS011;1240;48.018;7.816;2022-07-23T01:04:22;6.70;;;6.20;;
2456;SDS011;1240;48.018;7.816;2022-07-23T01:06:47;8.43;;;6.57;;
2456;SDS011;1240;48.018;7.816;2022-07-23T01:09:13;6.50;;;5.93;;
2456;SDS011;1240;48.018;7.816;2022-07-23T01:12:03;7.12;;;6.45;;
2456;SDS011;1240;48.018;7.816;2022-07-23T01:14:43;8.65;;;5.95;;
2456;SDS011;1240;48.018;7.816;2022-07-23T01:17:09;6.45;;;6.05;;
2456;SDS011;1240;48.018;7.816;2022-07-23T01:19:34;8.20;;;7.07;;
2456;SDS011;1240;48.018;7.816;2022-07-23T01:22:01;9.70;;;6.43;;
2456;SDS011;1240;48.018;7.816;2022-07-23T01:24:26;13.80;;;7.67;;
2456;SDS011;1240;48.018;7.816;2022-07-23T01:26:51;8.60;;;7.70;;
2456;SDS011;1240;48.018;7.816;2022-07-23T01:29:17;8.15;;;6.97;;
2456;SDS011;1240;48.018;7.816;2022-07-23T01:31:42;7.37;;;6.77;;
2456;SDS011;1240;48.018;7.816;2022-07-23T01:34:07;9.40;;;6.80;;
2456;SDS011;1240;48.018;7.816;2022-07-23T01:36:36;8.40;;;7.70;;
2456;SDS011;1240;48.018;7.816;2022-07-23T01:39:02;8.70;;;6.87;;
2456;SDS011;1240;48.018;7.816;2022-07-23T01:41:28;9.40;;;8.37;;
2456;SDS011;1240;48.018;7.816;2022-07-23T01:43:53;9.13;;;8.07;;
2456;SDS011;1240;48.018;7.816;2022-07-23T01:46:18;10.10;;;8.35;;
2456;SDS011;1240;48.018;7.816;2022-07-23T01:48:43;10.57;;;8.30;;
2456;SDS011;1240;48.018;7.816;2022-07-23T01:51:08;9.57;;;8.67;;
2456;SDS011;1240;48.018;7.816;2022-07-23T01:53:34;9.07;;;8.03;;
2456;SDS011;1240;48.018;7.816;2022-07-23T01:55:59;8.57;;;7.73;;
2456;SDS011;1240;48.018;7.816;2022-07-23T01:58:24;8.57;;;7.50;;
2456;SDS011;1240;48.018;7.816;2022-07-23T02:00:50;9.23;;;7.57;;
2456;SDS011;1240;48.018;7.816;2022-07-23T02:03:15;9.40;;;8.40;;
2456;SDS011;1240;48.018;7.816;2022-07-23T02:05:40;8.63;;;7.82;;
2456;SDS011;1240;48.018;7.816;2022-07-23T02:08:05;10.33;;;7.60;;
2456;SDS011;1240;48.018;7.816;2022-07-23T02:10:30;9.83;;;8.97;;
2456;SDS011;1240;48.018;7.816;2022-07-23T02:12:55;8.80;;;8.03;;
2456;SDS011;1240;48.018;7.816;2022-07-23T02:15:21;8.97;;;8.13;;
2456;SDS011;1240;48.018;7.816;2022-07-23T02:17:46;8.13;;;7.40;;
2456;SDS011;1240;48.018;7.816;2022-07-23T02:20:11;8.93;;;7.83;;
2456;SDS011;1240;48.018;7.816;2022-07-23T02:22:37;8.37;;;7.67;;
2456;SDS011;1240;48.018;7.816;2022-07-23T02:25:03;8.23;;;7.53;;
2456;SDS011;1240;48.018;7.816;2022-07-23T02:27:28;7.70;;;7.03;;
2456;SDS011;1240;48.018;7.816;2022-07-23T02:29:53;7.20;;;6.50;;
2456;SDS011;1240;48.018;7.816;2022-07-23T02:32:18;12.00;;;7.50;;
2456;SDS011;1240;48.018;7.816;2022-07-23T02:34:44;8.03;;;7.33;;
2456;SDS011;1240;48.018;7.816;2022-07-23T02:37:09;8.40;;;7.60;;
2456;SDS011;1240;48.018;7.816;2022-07-23T02:39:34;6.97;;;6.40;;
2456;SDS011;1240;48.018;7.816;2022-07-23T02:42:00;8.53;;;7.80;;
2456;SDS011;1240;48.018;7.816;2022-07-23T02:44:25;7.80;;;7.07;;
2456;SDS011;1240;48.018;7.816;2022-07-23T02:46:50;9.73;;;8.00;;
2456;SDS011;1240;48.018;7.816;2022-07-23T02:49:15;8.48;;;7.05;;
2456;SDS011;1240;48.018;7.816;2022-07-23T02:51:40;8.40;;;7.70;;
2456;SDS011;1240;48.018;7.816;2022-07-23T02:54:05;8.17;;;7.40;;
2456;SDS011;1240;48.018;7.816;2022-07-23T02:56:31;8.25;;;7.65;;
2456;SDS011;1240;48.018;7.816;2022-07-23T02:58:56;8.23;;;7.55;;
2456;SDS011;1240;48.018;7.816;2022-07-23T03:01:21;9.27;;;8.48;;
2456;SDS011;1240;48.018;7.816;2022-07-23T03:03:46;8.33;;;7.53;;
2456;SDS011;1240;48.018;7.816;2022-07-23T03:06:11;7.72;;;7.20;;
2456;SDS011;1240;48.018;7.816;2022-07-23T03:08:36;8.15;;;7.35;;
2456;SDS011;1240;48.018;7.816;2022-07-23T03:11:01;7.95;;;7.35;;
2456;SDS011;1240;48.018;7.816;2022-07-23T03:13:26;8.23;;;7.63;;
2456;SDS011;1240;48.018;7.816;2022-07-23T03:15:52;7.20;;;6.60;;
2456;SDS011;1240;48.018;7.816;2022-07-23T03:18:17;7.38;;;6.78;;
2456;SDS011;1240;48.018;7.816;2022-07-23T03:20:42;8.10;;;7.40;;
2456;SDS011;1240;48.018;7.816;2022-07-23T03:23:07;8.50;;;7.30;;
2456;SDS011;1240;48.018;7.816;2022-07-23T03:25:32;8.50;;;7.70;;
2456;SDS011;1240;48.018;7.816;2022-07-23T03:27:57;9.95;;;8.48;;
2456;SDS011;1240;48.018;7.816;2022-07-23T03:30:23;8.30;;;7.60;;
2456;SDS011;1240;48.018;7.816;2022-07-23T03:32:48;9.90;;;9.00;;
2456;SDS011;1240;48.018;7.816;2022-07-23T03:35:13;9.20;;;8.40;;
2456;SDS011;1240;48.018;7.816;2022-07-23T03:37:38;9.20;;;7.67;;
2456;SDS011;1240;48.018;7.816;2022-07-23T03:40:03;8.80;;;8.10;;
2456;SDS011;1240;48.018;7.816;2022-07-23T03:42:29;8.40;;;7.80;;
2456;SDS011;1240;48.018;7.816;2022-07-23T03:44:54;8.33;;;7.73;;
2456;SDS011;1240;48.018;7.816;2022-07-23T03:47:19;7.60;;;7.00;;
2456;SDS011;1240;48.018;7.816;2022-07-23T03:49:44;8.85;;;8.00;;
2456;SDS011;1240;48.018;7.816;2022-07-23T03:52:09;7.80;;;7.10;;
2456;SDS011;1240;48.018;7.816;2022-07-23T03:54:35;8.77;;;7.90;;
2456;SDS011;1240;48.018;7.816;2022-07-23T03:57:00;10.37;;;9.30;;
2456;SDS011;1240;48.018;7.816;2022-07-23T03:59:25;10.07;;;9.07;;
2456;SDS011;1240;48.018;7.816;2022-07-23T04:01:50;11.93;;;9.50;;
2456;SDS011;1240;48.018;7.816;2022-07-23T04:04:15;8.38;;;7.70;;
2456;SDS011;1240;48.018;7.816;2022-07-23T04:06:40;9.27;;;8.57;;
2456;SDS011;1240;48.018;7.816;2022-07-23T04:09:05;7.40;;;6.80;;
2456;SDS011;1240;48.018;7.816;2022-07-23T04:11:31;9.35;;;8.45;;
2456;SDS011;1240;48.018;7.816;2022-07-23T04:13:56;7.63;;;7.10;;
2456;SDS011;1240;48.018;7.816;2022-07-23T04:16:21;8.43;;;7.70;;
2456;SDS011;1240;48.018;7.816;2022-07-23T04:18:46;8.30;;;7.50;;
2456;SDS011;1240;48.018;7.816;2022-07-23T04:21:11;9.37;;;8.20;;
2456;SDS011;1240;48.018;7.816;2022-07-23T04:23:36;10.97;;;8.30;;
2456;SDS011;1240;48.018;7.816;2022-07-23T04:26:02;8.52;;;7.82;;
2456;SDS011;1240;48.018;7.816;2022-07-23T04:28:27;9.10;;;8.30;;
2456;SDS011;1240;48.018;7.816;2022-07-23T04:30:52;9.40;;;8.30;;
2456;SDS011;1240;48.018;7.816;2022-07-23T04:33:17;9.70;;;8.80;;
2456;SDS011;1240;48.018;7.816;2022-07-23T04:35:42;9.15;;;8.35;;
2456;SDS011;1240;48.018;7.816;2022-07-23T04:38:07;8.43;;;7.72;;
2456;SDS011;1240;48.018;7.816;2022-07-23T04:40:33;8.95;;;8.05;;
2456;SDS011;1240;48.018;7.816;2022-07-23T04:42:58;10.17;;;9.20;;
2456;SDS011;1240;48.018;7.816;2022-07-23T04:45:23;8.50;;;7.80;;
2456;SDS011;1240;48.018;7.816;2022-07-23T04:47:48;8.07;;;7.50;;
2456;SDS011;1240;48.018;7.816;2022-07-23T04:50:13;9.33;;;8.47;;
2456;SDS011;1240;48.018;7.816;2022-07-23T04:52:39;9.03;;;8.23;;
2456;SDS011;1240;48.018;7.816;2022-07-23T04:55:04;8.80;;;7.93;;
2456;SDS011;1240;48.018;7.816;2022-07-23T04:57:29;10.83;;;9.77;;
2456;SDS011;1240;48.018;7.816;2022-07-23T04:59:54;9.47;;;8.33;;
2456;SDS011;1240;48.018;7.816;2022-07-23T05:02:19;9.63;;;8.88;;
2456;SDS011;1240;48.018;7.816;2022-07-23T05:04:45;10.50;;;9.57;;
2456;SDS011;1240;48.018;7.816;2022-07-23T05:07:10;9.90;;;9.10;;
2456;SDS011;1240;48.018;7.816;2022-07-23T05:09:35;14.40;;;9.43;;
2456;SDS011;1240;48.018;7.816;2022-07-23T05:12:00;10.03;;;8.20;;
2456;SDS011;1240;48.018;7.816;2022-07-23T05:14:25;8.20;;;7.60;;
2456;SDS011;1240;48.018;7.816;2022-07-23T05:16:51;11.97;;;8.90;;
2456;SDS011;1240;48.018;7.816;2022-07-23T05:19:16;8.97;;;8.27;;
2456;SDS011;1240;48.018;7.816;2022-07-23T05:21:41;9.63;;;8.85;;
2456;SDS011;1240;48.018;7.816;2022-07-23T05:24:06;8.95;;;8.25;;
2456;SDS011;1240;48.018;7.816;2022-07-23T05:26:31;9.37;;;8.60;;
2456;SDS011;1240;48.018;7.816;2022-07-23T05:28:56;10.10;;;9.20;;
2456;SDS011;1240;48.018;7.816;2022-07-23T05:31:22;9.27;;;8.43;;
2456;SDS011;1240;48.018;7.816;2022-07-23T05:33:47;9.13;;;8.35;;
2456;SDS011;1240;48.018;7.816;2022-07-23T05:36:12;8.73;;;7.93;;
2456;SDS011;1240;48.018;7.816;2022-07-23T05:38:37;9.60;;;8.70;;
2456;SDS011;1240;48.018;7.816;2022-07-23T05:41:02;9.43;;;8.63;;
2456;SDS011;1240;48.018;7.816;2022-07-23T05:43:27;10.83;;;8.57;;
2456;SDS011;1240;48.018;7.816;2022-07-23T05:45:53;9.50;;;8.50;;
2456;SDS011;1240;48.018;7.816;2022-07-23T05:48:18;8.67;;;7.97;;
2456;SDS011;1240;48.018;7.816;2022-07-23T05:50:43;9.68;;;8.70;;
2456;SDS011;1240;48.018;7.816;2022-07-23T05:53:08;9.00;;;8.17;;
2456;SDS011;1240;48.018;7.816;2022-07-23T05:55:33;9.40;;;8.68;;
2456;SDS011;1240;48.018;7.816;2022-07-23T05:57:59;9.83;;;8.90;;
2456;SDS011;1240;48.018;7.816;2022-07-23T06:00:24;9.33;;;8.63;;
2456;SDS011;1240;48.018;7.816;2022-07-23T06:02:50;9.70;;;8.90;;
2456;SDS011;1240;48.018;7.816;2022-07-23T06:05:15;11.00;;;9.90;;
2456;SDS011;1240;48.018;7.816;2022-07-23T06:07:40;11.10;;;10.20;;
2456;SDS011;1240;48.018;7.816;2022-07-23T06:10:06;12.80;;;9.70;;
2456;SDS011;1240;48.018;7.816;2022-07-23T06:12:31;10.27;;;8.73;;
2456;SDS011;1240;48.018;7.816;2022-07-23T06:14:56;8.97;;;8.27;;
2456;SDS011;1240;48.018;7.816;2022-07-23T06:17:21;10.15;;;9.20;;
2456;SDS011;1240;48.018;7.816;2022-07-23T06:19:47;10.00;;;9.10;;
2456;SDS011;1240;48.018;7.816;2022-07-23T06:22:12;8.80;;;8.00;;
2456;SDS011;1240;48.018;7.816;2022-07-23T06:24:37;9.67;;;8.77;;
2456;SDS011;1240;48.018;7.816;2022-07-23T06:27:02;10.13;;;9.33;;
2456;SDS011;1240;48.018;7.816;2022-07-23T06:29:28;10.33;;;9.33;;
2456;SDS011;1240;48.018;7.816;2022-07-23T06:31:53;10.98;;;10.00;;
2456;SDS011;1240;48.018;7.816;2022-07-23T06:34:18;10.53;;;9.37;;
2456;SDS011;1240;48.018;7.816;2022-07-23T06:36:43;10.23;;;9.15;;
2456;SDS011;1240;48.018;7.816;2022-07-23T06:39:08;9.97;;;8.80;;
2456;SDS011;1240;48.018;7.816;2022-07-23T06:41:33;10.27;;;9.38;;
2456;SDS011;1240;48.018;7.816;2022-07-23T06:43:58;11.07;;;9.75;;
2456;SDS011;1240;48.018;7.816;2022-07-23T06:46:24;11.50;;;10.40;;
2456;SDS011;1240;48.018;7.816;2022-07-23T06:48:49;9.55;;;8.75;;
2456;SDS011;1240;48.018;7.816;2022-07-23T06:51:14;11.10;;;9.63;;
2456;SDS011;1240;48.018;7.816;2022-07-23T06:53:39;10.52;;;9.63;;
2456;SDS011;1240;48.018;7.816;2022-07-23T06:56:04;10.82;;;9.85;;
2456;SDS011;1240;48.018;7.816;2022-07-23T06:58:29;9.83;;;8.87;;
2456;SDS011;1240;48.018;7.816;2022-07-23T07:00:54;10.38;;;9.38;;
2456;SDS011;1240;48.018;7.816;2022-07-23T07:03:20;10.97;;;9.93;;
2456;SDS011;1240;48.018;7.816;2022-07-23T07:05:45;9.32;;;8.63;;
2456;SDS011;1240;48.018;7.816;2022-07-23T07:08:10;16.03;;;9.70;;
2456;SDS011;1240;48.018;7.816;2022-07-23T07:10:35;11.73;;;9.83;;
2456;SDS011;1240;48.018;7.816;2022-07-23T07:13:01;9.50;;;8.70;;
2456;SDS011;1240;48.018;7.816;2022-07-23T07:15:26;9.93;;;8.43;;
2456;SDS011;1240;48.018;7.816;2022-07-23T07:17:51;10.03;;;8.80;;
2456;SDS011;1240;48.018;7.816;2022-07-23T07:20:16;10.50;;;9.60;;
2456;SDS011;1240;48.018;7.816;2022-07-23T07:22:41;11.90;;;9.57;;
2456;SDS011;1240;48.018;7.816;2022-07-23T07:25:07;10.73;;;9.50;;
2456;SDS011;1240;48.018;7.816;2022-07-23T07:27:32;10.37;;;9.53;;
2456;SDS011;1240;48.018;7.816;2022-07-23T07:29:57;11.07;;;10.07;;
2456;SDS011;1240;48.018;7.816;2022-07-23T07:32:22;11.73;;;10.53;;
2456;SDS011;1240;48.018;7.816;2022-07-23T07:34:47;11.20;;;10.20;;
2456;SDS011;1240;48.018;7.816;2022-07-23T07:37:13;10.83;;;9.67;;
2456;SDS011;1240;48.018;7.816;2022-07-23T07:39:38;11.47;;;10.40;;
2456;SDS011;1240;48.018;7.816;2022-07-23T07:42:03;10.57;;;9.57;;
2456;SDS011;1240;48.018;7.816;2022-07-23T07:44:28;11.70;;;10.60;;
2456;SDS011;1240;48.018;7.816;2022-07-23T07:46:53;10.70;;;9.60;;
2456;SDS011;1240;48.018;7.816;2022-07-23T07:49:19;11.35;;;10.43;;
2456;SDS011;1240;48.018;7.816;2022-07-23T07:51:44;11.20;;;10.30;;
2456;SDS011;1240;48.018;7.816;2022-07-23T07:54:09;9.53;;;8.77;;
2456;SDS011;1240;48.018;7.816;2022-07-23T07:56:34;10.93;;;10.02;;
2456;SDS011;1240;48.018;7.816;2022-07-23T07:58:59;10.48;;;9.48;;
2456;SDS011;1240;48.018;7.816;2022-07-23T08:01:24;10.90;;;9.93;;
2456;SDS011;1240;48.018;7.816;2022-07-23T08:03:50;10.57;;;9.48;;
2456;SDS011;1240;48.018;7.816;2022-07-23T08:06:15;10.60;;;9.75;;
2456;SDS011;1240;48.018;7.816;2022-07-23T08:08:40;9.60;;;8.67;;
2456;SDS011;1240;48.018;7.816;2022-07-23T08:11:05;10.40;;;9.02;;
2456;SDS011;1240;48.018;7.816;2022-07-23T08:13:30;12.65;;;9.85;;
2456;SDS011;1240;48.018;7.816;2022-07-23T08:15:55;10.73;;;9.73;;
2456;SDS011;1240;48.018;7.816;2022-07-23T08:18:20;10.98;;;10.00;;
2456;SDS011;1240;48.018;7.816;2022-07-23T08:20:46;10.33;;;9.40;;
2456;SDS011;1240;48.018;7.816;2022-07-23T08:23:11;9.68;;;8.70;;
2456;SDS011;1240;48.018;7.816;2022-07-23T08:25:40;9.63;;;8.73;;
2456;SDS011;1240;48.018;7.816;2022-07-23T08:28:06;11.67;;;9.20;;
2456;SDS011;1240;48.018;7.816;2022-07-23T08:30:32;10.87;;;9.77;;
2456;SDS011;1240;48.018;7.816;2022-07-23T08:32:59;10.30;;;9.40;;
2456;SDS011;1240;48.018;7.816;2022-07-23T08:35:25;10.03;;;9.13;;
2456;SDS011;1240;48.018;7.816;2022-07-23T08:37:50;8.90;;;8.10;;
2456;SDS011;1240;48.018;7.816;2022-07-23T08:40:15;8.60;;;7.90;;
2456;SDS011;1240;48.018;7.816;2022-07-23T08:42:41;8.90;;;8.20;;
2456;SDS011;1240;48.018;7.816;2022-07-23T08:45:07;9.30;;;8.40;;
2456;SDS011;1240;48.018;7.816;2022-07-23T08:47:32;9.73;;;8.30;;
2456;SDS011;1240;48.018;7.816;2022-07-23T08:49:57;8.73;;;7.83;;
2456;SDS011;1240;48.018;7.816;2022-07-23T08:52:23;9.37;;;8.57;;
2456;SDS011;1240;48.018;7.816;2022-07-23T08:54:48;10.03;;;9.13;;
2456;SDS011;1240;48.018;7.816;2022-07-23T08:57:13;9.53;;;8.70;;
2456;SDS011;1240;48.018;7.816;2022-07-23T08:59:39;8.23;;;7.53;;
2456;SDS011;1240;48.018;7.816;2022-07-23T09:02:04;9.60;;;8.50;;
2456;SDS011;1240;48.018;7.816;2022-07-23T09:04:30;7.97;;;7.28;;
2456;SDS011;1240;48.018;7.816;2022-07-23T09:06:55;10.30;;;9.40;;
2456;SDS011;1240;48.018;7.816;2022-07-23T09:09:21;8.80;;;8.13;;
2456;SDS011;1240;48.018;7.816;2022-07-23T09:11:46;9.30;;;8.50;;
2456;SDS011;1240;48.018;7.816;2022-07-23T09:14:12;9.93;;;8.10;;
2456;SDS011;1240;48.018;7.816;2022-07-23T09:16:37;8.97;;;8.17;;
2456;SDS011;1240;48.018;7.816;2022-07-23T09:19:03;9.80;;;9.00;;
2456;SDS011;1240;48.018;7.816;2022-07-23T09:21:32;9.50;;;8.50;;
2456;SDS011;1240;48.018;7.816;2022-07-23T09:26:30;8.98;;;7.60;;
2456;SDS011;1240;48.018;7.816;2022-07-23T09:31:50;8.63;;;7.80;;
2456;SDS011;1240;48.018;7.816;2022-07-23T09:34:35;9.00;;;7.77;;
2456;SDS011;1240;48.018;7.816;2022-07-23T09:37:18;9.77;;;8.70;;
2456;SDS011;1240;48.018;7.816;2022-07-23T09:39:44;10.13;;;7.43;;
2456;SDS011;1240;48.018;7.816;2022-07-23T09:42:23;8.40;;;7.60;;
2456;SDS011;1240;48.018;7.816;2022-07-23T09:44:52;8.23;;;7.40;;
2456;SDS011;1240;48.018;7.816;2022-07-23T09:47:18;8.63;;;7.83;;
2456;SDS011;1240;48.018;7.816;2022-07-23T09:50:04;7.87;;;7.10;;
2456;SDS011;1240;48.018;7.816;2022-07-23T09:52:29;7.47;;;6.77;;
2456;SDS011;1240;48.018;7.816;2022-07-23T09:54:58;9.03;;;7.23;;
2456;SDS011;1240;48.018;7.816;2022-07-23T09:57:24;8.10;;;7.40;;
2456;SDS011;1240;48.018;7.816;2022-07-23T09:59:49;9.20;;;7.57;;
2456;SDS011;1240;48.018;7.816;2022-07-23T10:02:14;8.43;;;7.60;;
2456;SDS011;1240;48.018;7.816;2022-07-23T10:04:39;12.10;;;7.47;;
2456;SDS011;1240;48.018;7.816;2022-07-23T10:07:06;8.30;;;7.53;;
2456;SDS011;1240;48.018;7.816;2022-07-23T10:09:32;12.70;;;8.90;;
2456;SDS011;1240;48.018;7.816;2022-07-23T10:11:59;8.40;;;7.63;;
2456;SDS011;1240;48.018;7.816;2022-07-23T10:14:25;8.67;;;7.90;;
2456;SDS011;1240;48.018;7.816;2022-07-23T10:16:50;11.60;;;7.70;;
2456;SDS011;1240;48.018;7.816;2022-07-23T10:19:16;15.23;;;7.17;;
2456;SDS011;1240;48.018;7.816;2022-07-23T10:21:45;8.23;;;7.53;;
2456;SDS011;1240;48.018;7.816;2022-07-23T10:29:23;6.97;;;6.47;;
2456;SDS011;1240;48.018;7.816;2022-07-23T10:32:04;8.50;;;7.17;;
2456;SDS011;1240;48.018;7.816;2022-07-23T10:34:50;7.47;;;6.87;;
2456;SDS011;1240;48.018;7.816;2022-07-23T10:37:21;9.20;;;6.70;;
2456;SDS011;1240;48.018;7.816;2022-07-23T10:39:47;8.17;;;7.33;;
2456;SDS011;1240;48.018;7.816;2022-07-23T10:42:13;6.90;;;6.40;;
2456;SDS011;1240;48.018;7.816;2022-07-23T10:44:48;7.47;;;6.77;;
2456;SDS011;1240;48.018;7.816;2022-07-23T10:47:46;7.37;;;6.70;;
2456;SDS011;1240;48.018;7.816;2022-07-23T10:52:42;7.80;;;7.10;;
2456;SDS011;1240;48.018;7.816;2022-07-23T10:57:52;6.43;;;6.03;;
2456;SDS011;1240;48.018;7.816;2022-07-23T11:00:21;6.68;;;6.03;;
2456;SDS011;1240;48.018;7.816;2022-07-23T11:02:46;5.83;;;5.53;;
2456;SDS011;1240;48.018;7.816;2022-07-23T11:05:13;6.30;;;5.80;;
2456;SDS011;1240;48.018;7.816;2022-07-23T11:08:39;6.70;;;6.20;;
2456;SDS011;1240;48.018;7.816;2022-07-23T11:10:33;6.17;;;5.57;;
2456;SDS011;1240;48.018;7.816;2022-07-23T11:34:34;5.53;;;5.23;;
2456;SDS011;1240;48.018;7.816;2022-07-23T11:37:00;6.83;;;6.33;;
2456;SDS011;1240;48.018;7.816;2022-07-23T11:39:26;5.53;;;5.20;;
2456;SDS011;1240;48.018;7.816;2022-07-23T11:41:52;6.70;;;6.00;;
2456;SDS011;1240;48.018;7.816;2022-07-23T11:44:24;6.30;;;5.50;;
2456;SDS011;1240;48.018;7.816;2022-07-23T11:49:20;5.40;;;4.90;;
2456;SDS011;1240;48.018;7.816;2022-07-23T11:51:46;5.67;;;5.27;;
2456;SDS011;1240;48.018;7.816;2022-07-23T11:54:11;6.30;;;4.80;;
2456;SDS011;1240;48.018;7.816;2022-07-23T11:56:36;5.93;;;5.45;;
2456;SDS011;1240;48.018;7.816;2022-07-23T11:59:01;4.60;;;4.30;;
2456;SDS011;1240;48.018;7.816;2022-07-23T12:01:26;6.43;;;5.83;;
2456;SDS011;1240;48.018;7.816;2022-07-23T12:03:51;5.07;;;4.78;;
2456;SDS011;1240;48.018;7.816;2022-07-23T12:06:18;5.30;;;5.00;;
2456;SDS011;1240;48.018;7.816;2022-07-23T12:08:43;5.23;;;4.63;;
2456;SDS011;1240;48.018;7.816;2022-07-23T12:11:08;5.30;;;4.90;;
2456;SDS011;1240;48.018;7.816;2022-07-23T12:13:36;6.13;;;5.63;;
2456;SDS011;1240;48.018;7.816;2022-07-23T12:16:01;4.70;;;4.40;;
2456;SDS011;1240;48.018;7.816;2022-07-23T12:18:26;4.83;;;4.47;;
2456;SDS011;1240;48.018;7.816;2022-07-23T12:20:54;4.90;;;4.60;;
2456;SDS011;1240;48.018;7.816;2022-07-23T12:23:19;4.47;;;4.17;;
2456;SDS011;1240;48.018;7.816;2022-07-23T12:25:45;5.00;;;4.70;;
2456;SDS011;1240;48.018;7.816;2022-07-23T12:28:13;4.87;;;4.57;;
2456;SDS011;1240;48.018;7.816;2022-07-23T12:30:46;4.37;;;4.07;;
2456;SDS011;1240;48.018;7.816;2022-07-23T12:33:12;4.53;;;4.23;;
2456;SDS011;1240;48.018;7.816;2022-07-23T12:35:40;4.40;;;4.10;;
2456;SDS011;1240;48.018;7.816;2022-07-23T12:38:06;4.63;;;4.33;;
2456;SDS011;1240;48.018;7.816;2022-07-23T12:40:32;4.90;;;4.60;;
2456;SDS011;1240;48.018;7.816;2022-07-23T12:42:59;4.80;;;4.50;;
2456;SDS011;1240;48.018;7.816;2022-07-23T12:45:26;4.30;;;4.00;;
2456;SDS011;1240;48.018;7.816;2022-07-23T12:53:16;5.53;;;5.13;;
2456;SDS011;1240;48.018;7.816;2022-07-23T12:55:42;5.20;;;4.10;;
2456;SDS011;1240;48.018;7.816;2022-07-23T13:00:48;6.30;;;5.70;;
2456;SDS011;1240;48.018;7.816;2022-07-23T13:03:23;4.90;;;4.60;;
2456;SDS011;1240;48.018;7.816;2022-07-23T13:05:48;4.33;;;4.13;;
2456;SDS011;1240;48.018;7.816;2022-07-23T13:08:13;4.40;;;4.10;;
2456;SDS011;1240;48.018;7.816;2022-07-23T13:10:38;4.53;;;4.22;;
2456;SDS011;1240;48.018;7.816;2022-07-23T13:13:07;5.00;;;4.70;;
2456;SDS011;1240;48.018;7.816;2022-07-23T13:15:32;4.63;;;4.33;;
2456;SDS011;1240;48.018;7.816;2022-07-23T13:17:58;5.32;;;4.85;;
2456;SDS011;1240;48.018;7.816;2022-07-23T13:20:23;4.18;;;3.95;;
2456;SDS011;1240;48.018;7.816;2022-07-23T13:22:48;4.43;;;4.13;;
2456;SDS011;1240;48.018;7.816;2022-07-23T13:25:13;4.60;;;4.30;;
2456;SDS011;1240;48.018;7.816;2022-07-23T13:27:38;5.00;;;4.68;;
2456;SDS011;1240;48.018;7.816;2022-07-23T13:30:03;4.53;;;4.13;;
2456;SDS011;1240;48.018;7.816;2022-07-23T13:32:29;5.10;;;4.70;;
2456;SDS011;1240;48.018;7.816;2022-07-23T13:34:54;4.43;;;4.13;;
2456;SDS011;1240;48.018;7.816;2022-07-23T13:37:19;4.35;;;4.00;;
2456;SDS011;1240;48.018;7.816;2022-07-23T13:39:44;4.38;;;4.07;;
2456;SDS011;1240;48.018;7.816;2022-07-23T13:42:09;4.53;;;4.22;;
2456;SDS011;1240;48.018;7.816;2022-07-23T13:44:34;5.07;;;4.70;;
2456;SDS011;1240;48.018;7.816;2022-07-23T13:46:59;4.80;;;4.20;;
2456;SDS011;1240;48.018;7.816;2022-07-23T13:49:25;5.50;;;5.00;;
2456;SDS011;1240;48.018;7.816;2022-07-23T13:51:50;4.57;;;4.27;;
2456;SDS011;1240;48.018;7.816;2022-07-23T13:54:15;9.40;;;4.60;;
2456;SDS011;1240;48.018;7.816;2022-07-23T13:56:40;4.47;;;4.17;;
2456;SDS011;1240;48.018;7.816;2022-07-23T13:59:05;4.33;;;3.93;;
2456;SDS011;1240;48.018;7.816;2022-07-23T14:01:30;4.75;;;4.45;;
2456;SDS011;1240;48.018;7.816;2022-07-23T14:03:56;5.43;;;5.03;;
2456;SDS011;1240;48.018;7.816;2022-07-23T14:06:21;4.00;;;3.70;;
2456;SDS011;1240;48.018;7.816;2022-07-23T14:08:46;4.37;;;3.70;;
2456;SDS011;1240;48.018;7.816;2022-07-23T14:11:11;4.00;;;3.70;;
2456;SDS011;1240;48.018;7.816;2022-07-23T14:13:37;4.60;;;4.30;;
2456;SDS011;1240;48.018;7.816;2022-07-23T14:16:02;4.68;;;4.38;;
2456;SDS011;1240;48.018;7.816;2022-07-23T14:18:27;3.53;;;3.23;;
2456;SDS011;1240;48.018;7.816;2022-07-23T14:20:52;4.13;;;3.80;;
2456;SDS011;1240;48.018;7.816;2022-07-23T14:23:18;3.97;;;3.77;;
2456;SDS011;1240;48.018;7.816;2022-07-23T14:25:43;3.97;;;3.67;;
2456;SDS011;1240;48.018;7.816;2022-07-23T14:28:08;3.90;;;3.60;;
2456;SDS011;1240;48.018;7.816;2022-07-23T14:30:33;4.60;;;4.00;;
2456;SDS011;1240;48.018;7.816;2022-07-23T14:32:58;4.27;;;4.03;;
2456;SDS011;1240;48.018;7.816;2022-07-23T14:35:23;4.55;;;4.15;;
2456;SDS011;1240;48.018;7.816;2022-07-23T14:37:49;4.00;;;3.70;;
2456;SDS011;1240;48.018;7.816;2022-07-23T14:40:14;3.63;;;3.43;;
2456;SDS011;1240;48.018;7.816;2022-07-23T14:42:39;3.30;;;3.10;;
2456;SDS011;1240;48.018;7.816;2022-07-23T14:45:04;4.87;;;3.77;;
2456;SDS011;1240;48.018;7.816;2022-07-23T14:47:29;3.53;;;3.33;;
2456;SDS011;1240;48.018;7.816;2022-07-23T14:49:55;4.20;;;3.90;;
2456;SDS011;1240;48.018;7.816;2022-07-23T14:52:20;3.75;;;3.45;;
2456;SDS011;1240;48.018;7.816;2022-07-23T14:54:45;2.72;;;2.63;;
2456;SDS011;1240;48.018;7.816;2022-07-23T14:57:10;4.25;;;3.85;;
2456;SDS011;1240;48.018;7.816;2022-07-23T14:59:35;3.53;;;3.33;;
2456;SDS011;1240;48.018;7.816;2022-07-23T15:02:00;3.70;;;3.50;;
2456;SDS011;1240;48.018;7.816;2022-07-23T15:04:26;3.70;;;3.50;;
2456;SDS011;1240;48.018;7.816;2022-07-23T15:06:51;3.57;;;3.37;;
2456;SDS011;1240;48.018;7.816;2022-07-23T15:09:16;3.60;;;3.40;;
2456;SDS011;1240;48.018;7.816;2022-07-23T15:11:42;3.70;;;3.50;;
2456;SDS011;1240;48.018;7.816;2022-07-23T15:14:07;3.20;;;3.00;;
2456;SDS011;1240;48.018;7.816;2022-07-23T15:16:33;4.03;;;3.63;;
2456;SDS011;1240;48.018;7.816;2022-07-23T15:18:58;3.77;;;3.50;;
2456;SDS011;1240;48.018;7.816;2022-07-23T15:21:24;3.90;;;3.70;;
2456;SDS011;1240;48.018;7.816;2022-07-23T15:23:49;3.63;;;3.43;;
2456;SDS011;1240;48.018;7.816;2022-07-23T15:26:14;4.17;;;3.87;;
2456;SDS011;1240;48.018;7.816;2022-07-23T15:28:40;3.90;;;3.60;;
2456;SDS011;1240;48.018;7.816;2022-07-23T15:31:05;3.50;;;3.30;;
2456;SDS011;1240;48.018;7.816;2022-07-23T15:33:31;3.60;;;3.30;;
2456;SDS011;1240;48.018;7.816;2022-07-23T15:35:56;3.42;;;3.22;;
2456;SDS011;1240;48.018;7.816;2022-07-23T15:38:21;3.33;;;3.13;;
2456;SDS011;1240;48.018;7.816;2022-07-23T15:40:46;3.20;;;3.00;;
2456;SDS011;1240;48.018;7.816;2022-07-23T15:43:11;3.03;;;2.83;;
2456;SDS011;1240;48.018;7.816;2022-07-23T15:45:37;3.30;;;3.10;;
2456;SDS011;1240;48.018;7.816;2022-07-23T15:48:03;3.43;;;3.23;;
2456;SDS011;1240;48.018;7.816;2022-07-23T15:50:28;3.73;;;3.53;;
2456;SDS011;1240;48.018;7.816;2022-07-23T15:52:53;3.70;;;3.40;;